Time;durP1;ratioP1;P1;durP2;ratioP2;P2;SDS_P1;SDS_P2;PMS_P1;PMS_P2;Temp;Humidity;BMP_temperature;BMP_pressure;BME280_temperature;BME280_humidity;BME280_pressure;Samples;Min_cycle;Max_cycle;Signal;HPM_P1;HPM_P2
2022/05/09 03:00:34;;;;;;;14.52;4.88;;;6.20;99.90;;;;;;5829516;23;20272;-87
2022/05/09 03:05:45;;;;;;;10.75;4.07;;;6.10;99.90;;;;;;4958215;28;20137;-86
2022/05/09 03:08:12;;;;;;;13.13;4.22;;;6.20;99.90;;;;;;4942512;28;20131;-85
2022/05/09 03:10:39;;;;;;;11.43;4.32;;;6.10;99.90;;;;;;4976053;28;20053;-86
2022/05/09 03:13:07;;;;;;;10.93;4.53;;;6.10;99.90;;;;;;4942463;28;20468;-86
2022/05/09 03:15:38;;;;;;;12.98;4.47;;;6.10;99.90;;;;;;4958652;28;20051;-84
2022/05/09 03:18:04;;;;;;;12.20;5.78;;;6.20;99.90;;;;;;4942323;28;20043;-86
2022/05/09 03:20:30;;;;;;;11.65;4.38;;;6.20;99.90;;;;;;4942514;28;20063;-85
2022/05/09 03:22:55;;;;;;;13.90;3.92;;;6.10;99.90;;;;;;4975794;28;20047;-87
2022/05/09 03:25:21;;;;;;;12.18;4.10;;;6.00;99.90;;;;;;4975958;28;20483;-89
2022/05/09 03:27:47;;;;;;;8.70;3.40;;;6.00;99.90;;;;;;4958114;28;20053;-88
2022/05/09 03:30:15;;;;;;;11.02;3.53;;;5.90;99.90;;;;;;4975343;28;20031;-85
2022/05/09 03:32:41;;;;;;;11.50;3.25;;;5.90;99.90;;;;;;4958672;28;20066;-88
2022/05/09 03:35:08;;;;;;;5.93;2.88;;;5.90;99.90;;;;;;4942582;28;20022;-84
2022/05/09 03:37:34;;;;;;;8.23;3.38;;;5.80;99.90;;;;;;4958528;28;20134;-88
2022/05/09 03:39:59;;;;;;;7.60;3.63;;;5.70;99.90;;;;;;4958622;28;20126;-88
2022/05/09 03:42:25;;;;;;;12.35;3.60;;;5.80;99.90;;;;;;4958198;28;20110;-87
2022/05/09 03:44:51;;;;;;;12.88;3.90;;;5.80;99.90;;;;;;4958918;28;20086;-86
2022/05/09 03:47:17;;;;;;;9.90;3.35;;;5.70;99.90;;;;;;4958775;28;20046;-86
2022/05/09 03:49:43;;;;;;;9.95;3.83;;;5.70;99.90;;;;;;4958928;28;20042;-86
2022/05/09 03:52:10;;;;;;;9.00;3.25;;;5.60;99.90;;;;;;4942323;28;20189;-87
2022/05/09 03:54:35;;;;;;;8.27;2.97;;;5.70;99.90;;;;;;4958222;28;20050;-87
2022/05/09 03:57:02;;;;;;;10.93;3.65;;;5.60;99.90;;;;;;4958792;28;20472;-87
2022/05/09 03:59:28;;;;;;;12.02;4.30;;;5.60;99.90;;;;;;4957822;28;20050;-84
2022/05/09 04:01:55;;;;;;;9.35;3.35;;;5.60;99.90;;;;;;4974835;28;20406;-85
2022/05/09 04:04:20;;;;;;;16.50;4.30;;;5.60;99.90;;;;;;4941376;28;20039;-82
2022/05/09 04:06:46;;;;;;;9.00;3.67;;;5.60;99.90;;;;;;4957272;28;20050;-84
2022/05/09 04:09:12;;;;;;;8.95;3.42;;;5.60;99.90;;;;;;4958104;28;20043;-84
2022/05/09 04:11:37;;;;;;;10.07;3.30;;;5.50;99.90;;;;;;4977938;28;20035;-88
2022/05/09 04:14:03;;;;;;;7.65;3.67;;;5.50;99.90;;;;;;4961298;28;20402;-87
2022/05/09 04:19:13;;;;;;;7.50;3.75;;;5.40;99.90;;;;;;4979121;28;20047;-86
2022/05/09 04:21:38;;;;;;;11.57;3.85;;;5.40;99.90;;;;;;4978780;28;20034;-89
2022/05/09 04:24:04;;;;;;;8.20;3.40;;;5.40;99.90;;;;;;4945079;28;20061;-86
2022/05/09 04:26:31;;;;;;;10.13;3.58;;;5.40;99.90;;;;;;4961300;28;20479;-87
2022/05/09 04:28:57;;;;;;;13.75;4.88;;;5.40;99.90;;;;;;4981075;28;20500;-86
2022/05/09 04:31:23;;;;;;;9.90;3.35;;;5.40;99.90;;;;;;4984392;28;20097;-83
2022/05/09 04:33:50;;;;;;;10.90;4.32;;;5.40;99.90;;;;;;4970015;28;20042;-82
2022/05/09 04:36:15;;;;;;;11.80;4.47;;;5.40;99.90;;;;;;4970075;28;20046;-85
2022/05/09 04:38:43;;;;;;;11.15;3.92;;;5.50;99.90;;;;;;4970022;28;20391;-85
2022/05/09 04:41:10;;;;;;;10.80;4.95;;;5.50;99.90;;;;;;4953802;28;20183;-84
2022/05/09 04:43:37;;;;;;;9.55;4.65;;;5.50;99.90;;;;;;4966259;28;20128;-87
2022/05/09 04:46:04;;;;;;;14.70;4.78;;;5.50;99.90;;;;;;4961272;28;20074;-86
2022/05/09 04:48:30;;;;;;;20.20;5.75;;;5.60;99.90;;;;;;4978750;28;20050;-86
2022/05/09 04:50:56;;;;;;;9.55;4.03;;;5.60;99.90;;;;;;4960845;28;20035;-87
2022/05/09 04:53:22;;;;;;;13.23;4.30;;;5.60;99.90;;;;;;4978670;28;20114;-86
2022/05/09 04:55:48;;;;;;;11.18;4.88;;;5.60;99.90;;;;;;4961247;28;20489;-84
2022/05/09 04:58:17;;;;;;;9.75;4.00;;;5.60;99.90;;;;;;4960754;28;20049;-89
2022/05/09 05:00:43;;;;;;;14.20;3.90;;;5.60;99.90;;;;;;4960833;28;20047;-86
2022/05/09 05:03:08;;;;;;;13.23;4.25;;;5.60;99.90;;;;;;4978592;28;20039;-85
2022/05/09 05:05:34;;;;;;;11.18;4.13;;;5.60;99.90;;;;;;4978534;28;20047;-87
2022/05/09 05:08:00;;;;;;;14.98;4.10;;;5.60;99.90;;;;;;4978532;28;20034;-86
2022/05/09 05:10:27;;;;;;;14.52;4.53;;;5.60;99.90;;;;;;4961148;28;20035;-86
2022/05/09 05:12:52;;;;;;;11.85;4.72;;;5.70;99.90;;;;;;4978214;28;20038;-89
2022/05/09 05:15:18;;;;;;;15.70;4.75;;;5.70;99.90;;;;;;4977579;28;20402;-83
2022/05/09 05:17:44;;;;;;;13.98;3.97;;;5.80;99.90;;;;;;4960990;28;20082;-88
2022/05/09 05:20:13;;;;;;;12.75;4.80;;;5.90;99.90;;;;;;4959855;28;20035;-84
2022/05/09 05:22:47;;;;;;;20.05;5.25;;;5.90;99.90;;;;;;4959293;28;20398;-89
2022/05/09 05:25:18;;;;;;;13.32;4.93;;;6.00;99.90;;;;;;4960652;28;20043;-85
2022/05/09 05:27:47;;;;;;;16.55;4.65;;;6.00;99.90;;;;;;4944902;28;20047;-87
2022/05/09 05:30:14;;;;;;;15.70;5.00;;;6.10;99.90;;;;;;4943644;28;20333;-80
2022/05/09 05:32:41;;;;;;;17.73;5.10;;;6.20;99.90;;;;;;4977882;28;20154;-88
2022/05/09 05:35:58;;;;;;;12.45;4.78;;;6.30;99.90;;;;;;4943942;28;20047;-85
2022/05/09 05:39:15;;;;;;;15.68;5.68;;;6.40;99.90;;;;;;4932222;28;20507;-87
2022/05/09 05:44:56;;;;;;;18.75;5.63;;;6.60;99.90;;;;;;4974904;28;20054;-87
2022/05/09 05:47:34;;;;;;;20.45;5.55;;;6.70;99.90;;;;;;4960988;28;20471;-87
2022/05/09 05:50:04;;;;;;;21.23;7.22;;;6.80;99.90;;;;;;4977078;28;20043;-85
2022/05/09 05:53:21;;;;;;;;;;;;;;;;;;;;;
2022/05/09 05:56:37;;;;;;;19.45;6.53;;;7.00;99.90;;;;;;4947715;28;20126;-87
2022/05/09 05:59:19;;;;;;;23.45;6.93;;;7.10;99.90;;;;;;4873733;29;20071;-87
2022/05/09 06:05:26;;;;;;;18.98;6.03;;;7.30;99.90;;;;;;4892881;29;20195;-91
2022/05/09 06:11:21;;;;;;;22.15;6.85;;;7.50;99.90;;;;;;4901082;29;20088;-82
2022/05/09 06:13:47;;;;;;;27.90;6.75;;;7.60;99.90;;;;;;4900627;29;20656;-85
2022/05/09 06:16:12;;;;;;;25.63;7.28;;;7.70;99.90;;;;;;4917660;29;20048;-87
2022/05/09 06:18:38;;;;;;;22.95;6.88;;;7.80;99.90;;;;;;4917238;29;20527;-86
2022/05/09 06:21:03;;;;;;;24.42;7.45;;;8.00;99.90;;;;;;4917261;29;20050;-85
2022/05/09 06:23:29;;;;;;;21.08;6.25;;;8.00;99.90;;;;;;4937480;28;20047;-85
2022/05/09 06:25:56;;;;;;;22.67;6.80;;;8.10;99.90;;;;;;4975660;28;20043;-84
2022/05/09 06:28:23;;;;;;;23.67;7.20;;;8.30;99.90;;;;;;4958111;28;20050;-84
2022/05/09 06:30:49;;;;;;;21.92;7.38;;;8.30;99.90;;;;;;4958176;28;20050;-83
2022/05/09 06:33:25;;;;;;;22.27;5.80;;;8.40;99.90;;;;;;4957791;28;20042;-82
2022/05/09 06:35:52;;;;;;;21.63;5.88;;;8.60;99.90;;;;;;4958033;28;20078;-84
2022/05/09 06:38:19;;;;;;;23.20;6.57;;;8.70;99.90;;;;;;4958203;28;20129;-82
2022/05/09 06:40:45;;;;;;;22.35;6.38;;;8.80;99.90;;;;;;4958877;28;20058;-83
2022/05/09 06:43:12;;;;;;;28.65;6.45;;;8.90;99.90;;;;;;4958156;28;20100;-83
2022/05/09 06:45:37;;;;;;;22.75;6.30;;;9.00;99.90;;;;;;4958817;28;20553;-83
2022/05/09 06:48:03;;;;;;;19.75;5.93;;;9.10;99.90;;;;;;4959190;28;20079;-83
2022/05/09 06:50:34;;;;;;;21.60;6.25;;;9.20;99.90;;;;;;4958293;28;20042;-83
2022/05/09 06:53:01;;;;;;;19.88;6.28;;;9.30;99.90;;;;;;4958466;28;20053;-84
2022/05/09 06:55:27;;;;;;;18.55;5.60;;;9.40;99.90;;;;;;4958385;28;20054;-83
2022/05/09 06:57:53;;;;;;;18.20;5.65;;;9.50;99.90;;;;;;4958200;28;20483;-83
2022/05/09 07:00:24;;;;;;;17.05;5.57;;;9.60;99.90;;;;;;4957563;28;20042;-84
2022/05/09 07:02:50;;;;;;;14.73;5.15;;;9.60;99.90;;;;;;4957761;28;20055;-82
2022/05/09 07:05:18;;;;;;;18.25;5.70;;;9.70;99.90;;;;;;4958199;28;20035;-82
2022/05/09 07:07:44;;;;;;;17.42;4.97;;;9.80;99.90;;;;;;4975241;28;20042;-82
2022/05/09 07:10:12;;;;;;;15.43;5.72;;;9.90;99.90;;;;;;4942051;28;20526;-83
2022/05/09 07:12:53;;;;;;;13.35;4.90;;;10.00;99.90;;;;;;4957827;28;20479;-81
2022/05/09 07:15:28;;;;;;;16.42;5.45;;;10.10;99.90;;;;;;4958110;28;20399;-83
2022/05/09 07:17:55;;;;;;;18.85;4.75;;;10.20;99.90;;;;;;4960327;28;20054;-83
2022/05/09 07:20:25;;;;;;;23.08;6.65;;;10.30;99.90;;;;;;4980085;28;20039;-85
2022/05/09 07:22:56;;;;;;;12.52;5.35;;;10.40;99.90;;;;;;4969628;28;20042;-82
2022/05/09 07:25:23;;;;;;;15.15;5.20;;;10.50;99.90;;;;;;4975664;28;20482;-85
2022/05/09 07:27:51;;;;;;;16.42;5.00;;;10.60;99.90;;;;;;4953945;28;20122;-81
2022/05/09 07:30:19;;;;;;;12.88;5.65;;;10.80;99.90;;;;;;4976361;28;20073;-84
2022/05/09 07:32:46;;;;;;;15.60;4.90;;;10.90;99.90;;;;;;4958825;28;20062;-83
2022/05/09 07:35:14;;;;;;;18.52;5.70;;;11.00;99.90;;;;;;4957781;28;20116;-83
2022/05/09 07:37:40;;;;;;;18.70;5.60;;;11.10;99.90;;;;;;4957767;28;20093;-84
2022/05/09 07:40:08;;;;;;;15.77;4.43;;;11.20;99.90;;;;;;4958552;28;20404;-85
2022/05/09 07:42:34;;;;;;;15.77;5.22;;;11.30;99.90;;;;;;4957570;28;20086;-83
2022/05/09 07:45:01;;;;;;;21.33;6.25;;;11.40;99.90;;;;;;4958023;28;20382;-82
2022/05/09 07:47:27;;;;;;;17.63;4.70;;;11.50;99.90;;;;;;4978631;28;20043;-84
2022/05/09 07:49:52;;;;;;;17.60;6.00;;;11.60;99.90;;;;;;4961446;28;20038;-84
2022/05/09 07:52:18;;;;;;;16.92;4.90;;;11.70;99.90;;;;;;4960994;28;20097;-84
2022/05/09 07:54:46;;;;;;;15.30;4.88;;;11.70;99.90;;;;;;4961550;28;20047;-82
2022/05/09 07:57:12;;;;;;;11.27;4.78;;;11.90;99.90;;;;;;4960775;28;20062;-84
2022/05/09 07:59:38;;;;;;;15.65;4.72;;;12.00;99.90;;;;;;4945351;28;20045;-83
2022/05/09 08:02:03;;;;;;;17.13;4.28;;;12.10;99.90;;;;;;4960927;28;20458;-84
2022/05/09 08:04:29;;;;;;;15.10;4.38;;;12.20;99.90;;;;;;4945184;28;20130;-83
2022/05/09 08:06:55;;;;;;;19.23;4.50;;;12.30;99.90;;;;;;4944858;28;20045;-83
2022/05/09 08:09:20;;;;;;;13.32;3.90;;;12.50;99.90;;;;;;4945671;28;20081;-83
2022/05/09 08:11:46;;;;;;;14.68;4.20;;;12.60;99.90;;;;;;4961278;28;20050;-84
2022/05/09 08:14:12;;;;;;;13.35;3.75;;;12.70;99.90;;;;;;4944730;28;20072;-83
2022/05/09 08:16:39;;;;;;;11.68;3.63;;;12.80;99.90;;;;;;4961370;28;20062;-83
2022/05/09 08:19:05;;;;;;;16.90;4.03;;;13.00;99.90;;;;;;4962000;28;20451;-81
2022/05/09 08:21:30;;;;;;;15.25;3.95;;;13.10;99.90;;;;;;4960982;28;20054;-83
2022/05/09 08:23:57;;;;;;;16.10;3.60;;;13.20;99.90;;;;;;4944727;28;20056;-83
2022/05/09 08:26:23;;;;;;;16.25;4.30;;;13.40;99.90;;;;;;4978208;28;20162;-81
2022/05/09 08:28:49;;;;;;;12.65;3.50;;;13.60;99.90;;;;;;4945057;28;20494;-82
2022/05/09 08:31:18;;;;;;;8.65;3.28;;;13.70;99.90;;;;;;4961203;28;20049;-84
2022/05/09 08:33:46;;;;;;;14.50;3.42;;;13.80;99.90;;;;;;4961230;28;20089;-84
2022/05/09 08:36:12;;;;;;;13.70;3.13;;;14.00;99.90;;;;;;4945285;28;20061;-82
2022/05/09 08:38:50;;;;;;;12.48;3.35;;;14.10;99.90;;;;;;4960872;28;20050;-82
2022/05/09 08:41:19;;;;;;;17.30;3.17;;;14.30;99.90;;;;;;4944451;28;20042;-82
2022/05/09 08:43:51;;;;;;;12.15;3.25;;;14.40;99.90;;;;;;4978279;28;20459;-85
2022/05/09 08:46:41;;;;;;;10.43;2.78;;;14.50;99.90;;;;;;4962011;28;20043;-83
2022/05/09 08:49:25;;;;;;;10.60;3.13;;;14.70;99.90;;;;;;4945449;28;20111;-82
2022/05/09 08:52:07;;;;;;;10.07;2.53;;;14.90;99.90;;;;;;4960329;28;20043;-85
2022/05/09 08:54:35;;;;;;;8.80;2.38;;;15.10;99.90;;;;;;4960614;28;20042;-84
2022/05/09 08:57:05;;;;;;;12.40;2.28;;;15.30;99.90;;;;;;4960540;28;20127;-82
2022/05/09 09:00:17;;;;;;;12.35;2.45;;;15.60;99.90;;;;;;4962060;28;20038;-84
2022/05/09 09:03:07;;;;;;;8.98;2.45;;;15.80;99.90;;;;;;4977379;28;20434;-85
2022/05/09 09:05:36;;;;;;;11.50;2.78;;;16.00;99.90;;;;;;4961876;28;20077;-83
2022/05/09 09:08:23;;;;;;;7.97;2.00;;;16.20;99.90;;;;;;4944451;28;20045;-81
2022/05/09 09:11:10;;;;;;;8.98;2.47;;;16.40;99.90;;;;;;4960857;28;20047;-84
2022/05/09 09:13:54;;;;;;;6.78;2.13;;;16.60;99.90;;;;;;4961420;28;20086;-82
2022/05/09 09:16:44;;;;;;;12.63;2.08;;;17.00;99.90;;;;;;4961099;28;20484;-83
2022/05/09 09:19:28;;;;;;;9.60;2.30;;;17.70;99.50;;;;;;4962333;28;20051;-83
2022/05/09 09:22:09;;;;;;;12.50;2.75;;;18.20;98.00;;;;;;4945226;28;20108;-83
2022/05/09 09:24:58;;;;;;;7.20;2.15;;;18.00;97.80;;;;;;4944384;28;20141;-82
2022/05/09 09:27:41;;;;;;;12.95;2.78;;;17.90;95.70;;;;;;4942536;28;20142;-85
2022/05/09 09:30:13;;;;;;;8.35;2.00;;;17.90;95.50;;;;;;4944741;28;20043;-85
2022/05/09 09:32:42;;;;;;;6.82;2.33;;;18.00;95.00;;;;;;4961908;28;20094;-84
2022/05/09 09:35:32;;;;;;;10.20;2.30;;;18.20;94.50;;;;;;4959903;28;20043;-84
2022/05/09 09:38:31;;;;;;;7.78;2.10;;;18.20;92.60;;;;;;4945029;28;20043;-82
2022/05/09 09:41:29;;;;;;;6.00;1.92;;;18.30;93.50;;;;;;4944052;28;20042;-84
2022/05/09 09:44:08;;;;;;;8.65;2.40;;;18.40;92.70;;;;;;4943333;28;20122;-86
2022/05/09 09:46:34;;;;;;;13.07;2.42;;;18.50;91.70;;;;;;4945211;28;20391;-83
2022/05/09 09:49:08;;;;;;;9.20;1.83;;;18.70;91.40;;;;;;4943499;28;20046;-84
2022/05/09 09:51:48;;;;;;;8.75;1.88;;;18.80;87.70;;;;;;4960246;28;20047;-83
2022/05/09 09:54:22;;;;;;;7.20;1.95;;;19.00;84.10;;;;;;4944019;28;20054;-86
2022/05/09 09:56:48;;;;;;;7.97;2.22;;;19.00;85.40;;;;;;4944731;28;20056;-86
2022/05/09 09:59:14;;;;;;;8.95;2.03;;;19.10;85.10;;;;;;4959548;28;20050;-83
2022/05/09 10:01:40;;;;;;;6.80;2.15;;;19.20;85.00;;;;;;4959169;28;20047;-84
2022/05/09 10:04:10;;;;;;;7.32;2.00;;;19.30;82.60;;;;;;4943786;28;20476;-86
2022/05/09 10:07:00;;;;;;;7.13;2.45;;;19.50;81.10;;;;;;4928103;28;20054;-83
2022/05/09 10:09:28;;;;;;;6.72;2.00;;;19.80;81.00;;;;;;4967951;28;20050;-85
2022/05/09 10:11:53;;;;;;;7.65;1.83;;;20.00;79.30;;;;;;4927411;28;20526;-84
2022/05/09 10:14:35;;;;;;;13.55;2.40;;;20.10;77.30;;;;;;4950844;28;20051;-83
2022/05/09 10:17:28;;;;;;;10.85;2.55;;;20.20;70.70;;;;;;4935848;28;20047;-84
2022/05/09 10:19:55;;;;;;;8.63;2.20;;;20.20;71.70;;;;;;4931337;28;20043;-83
2022/05/09 10:25:22;;;;;;;9.60;1.80;;;20.50;72.20;;;;;;4942104;29;20085;-84
2022/05/09 10:28:10;;;;;;;13.13;2.67;;;20.50;73.90;;;;;;4925683;29;20093;-83
2022/05/09 10:30:40;;;;;;;8.60;2.22;;;20.70;70.00;;;;;;4926346;29;20420;-82
2022/05/09 10:33:24;;;;;;;10.27;2.25;;;20.80;73.20;;;;;;4940927;29;20047;-83
2022/05/09 10:35:56;;;;;;;11.18;2.55;;;20.80;71.20;;;;;;4942651;29;20047;-85
2022/05/09 10:38:40;;;;;;;7.53;2.10;;;20.90;72.60;;;;;;4926003;29;20388;-84
2022/05/09 10:41:13;;;;;;;11.30;1.98;;;20.90;69.80;;;;;;4925608;29;20479;-85
2022/05/09 10:44:10;;;;;;;8.85;2.35;;;21.00;72.00;;;;;;4924157;29;20094;-86
2022/05/09 10:46:51;;;;;;;10.15;1.85;;;20.80;63.20;;;;;;4957449;29;20542;-87
2022/05/09 10:49:24;;;;;;;8.57;1.90;;;20.60;64.10;;;;;;4940681;29;20035;-82
2022/05/09 10:52:07;;;;;;;8.52;2.00;;;20.40;62.50;;;;;;4939606;29;20039;-83
2022/05/09 10:54:48;;;;;;;8.20;1.80;;;20.60;66.10;;;;;;4941374;29;20043;-84
2022/05/09 10:57:31;;;;;;;9.43;2.05;;;20.90;65.90;;;;;;4939347;29;20513;-86
2022/05/09 11:00:09;;;;;;;7.28;2.10;;;21.10;66.30;;;;;;4942001;29;20047;-83
2022/05/09 11:03:27;;;;;;;12.00;2.13;;;21.30;63.60;;;;;;4940273;29;20047;-84
2022/05/09 11:06:30;;;;;;;7.05;2.03;;;21.20;63.50;;;;;;4923577;29;20051;-81
2022/05/09 11:09:22;;;;;;;7.05;2.13;;;21.20;62.20;;;;;;4940133;29;20046;-84
2022/05/09 11:12:25;;;;;;;6.55;1.95;;;21.30;64.00;;;;;;4924232;29;20471;-82
2022/05/09 11:15:23;;;;;;;13.90;2.30;;;21.40;64.30;;;;;;4939074;29;20050;-85
2022/05/09 11:18:00;;;;;;;7.82;2.22;;;21.60;64.20;;;;;;4958079;29;20054;-83
2022/05/09 11:20:46;;;;;;;10.07;2.30;;;21.90;64.20;;;;;;4955083;28;20047;-82
2022/05/09 11:23:59;;;;;;;10.77;2.50;;;22.00;63.70;;;;;;4956929;29;20106;-83
2022/05/09 11:26:51;;;;;;;6.38;1.70;;;22.20;64.00;;;;;;4860680;29;20044;-84
2022/05/09 11:29:26;;;;;;;8.13;2.15;;;22.30;63.00;;;;;;4843641;29;20045;-86
2022/05/09 11:32:08;;;;;;;8.98;2.00;;;22.30;59.70;;;;;;4916853;28;20050;-83
2022/05/09 11:35:07;;;;;;;8.68;2.22;;;22.30;59.60;;;;;;4958156;28;20055;-85
2022/05/09 11:37:58;;;;;;;7.07;2.00;;;22.20;59.20;;;;;;4958236;28;20050;-84
2022/05/09 11:40:27;;;;;;;7.63;2.03;;;22.00;57.00;;;;;;4975586;28;20053;-83
2022/05/09 11:43:30;;;;;;;6.70;1.77;;;22.00;57.30;;;;;;4974444;28;20053;-84
2022/05/09 11:46:04;;;;;;;8.98;2.20;;;21.90;57.30;;;;;;4957689;28;20395;-84
2022/05/09 11:48:48;;;;;;;6.75;2.15;;;21.90;57.20;;;;;;4957636;28;20039;-83
2022/05/09 11:51:20;;;;;;;7.20;1.90;;;22.10;57.30;;;;;;4958567;28;20066;-84
2022/05/09 11:53:52;;;;;;;7.32;2.22;;;22.40;57.40;;;;;;4974913;28;20122;-85
2022/05/09 11:56:18;;;;;;;8.07;1.80;;;22.40;56.00;;;;;;4957608;28;20058;-84
2022/05/09 11:58:44;;;;;;;7.65;1.83;;;22.60;55.50;;;;;;4941931;28;20422;-84
2022/05/09 12:01:10;;;;;;;9.27;2.00;;;22.60;55.60;;;;;;4957471;28;20078;-86
2022/05/09 12:03:42;;;;;;;7.43;1.80;;;22.80;54.90;;;;;;4975367;28;20038;-84
2022/05/09 12:06:29;;;;;;;5.88;1.73;;;22.70;54.60;;;;;;4957908;28;20082;-85
2022/05/09 12:08:56;;;;;;;6.28;1.80;;;22.60;51.90;;;;;;4941411;28;20035;-83
2022/05/09 12:11:31;;;;;;;8.40;1.60;;;22.70;54.10;;;;;;4940818;28;20038;-82
2022/05/09 12:14:00;;;;;;;9.00;2.28;;;22.80;54.20;;;;;;4975608;28;20379;-83
2022/05/09 12:16:35;;;;;;;6.32;2.20;;;22.90;54.50;;;;;;4957305;28;20058;-83
2022/05/09 12:19:04;;;;;;;6.35;2.17;;;23.20;52.70;;;;;;4957204;28;20042;-83
2022/05/09 12:21:37;;;;;;;5.78;1.85;;;23.30;53.70;;;;;;4957233;28;20058;-82
2022/05/09 12:24:13;;;;;;;7.00;1.90;;;23.50;52.80;;;;;;4956618;28;20498;-82
2022/05/09 12:26:42;;;;;;;8.02;2.00;;;23.60;52.10;;;;;;4957948;28;20360;-82
2022/05/09 12:29:20;;;;;;;5.30;1.92;;;23.40;52.10;;;;;;4941147;28;20121;-82
2022/05/09 12:31:50;;;;;;;7.28;1.80;;;23.50;52.70;;;;;;4958396;28;20050;-83
2022/05/09 12:34:21;;;;;;;6.15;1.80;;;23.60;52.20;;;;;;4960720;28;20078;-84
2022/05/09 12:36:47;;;;;;;7.35;1.90;;;23.80;53.50;;;;;;4959886;28;20046;-83
2022/05/09 12:39:28;;;;;;;5.45;1.70;;;24.00;54.30;;;;;;4944253;28;20047;-84
2022/05/09 12:41:56;;;;;;;7.13;2.05;;;24.10;53.10;;;;;;4960165;28;20062;-83
2022/05/09 12:44:28;;;;;;;5.55;1.80;;;24.10;52.50;;;;;;4943932;28;20039;-81
2022/05/09 12:46:57;;;;;;;6.05;1.65;;;24.00;52.60;;;;;;4978401;28;20057;-83
2022/05/09 12:49:43;;;;;;;7.45;2.00;;;24.10;53.20;;;;;;4960533;28;20042;-80
2022/05/09 12:52:12;;;;;;;5.10;1.65;;;24.10;52.20;;;;;;4977628;28;20035;-82
2022/05/09 12:54:39;;;;;;;7.50;2.25;;;24.10;51.80;;;;;;4961133;28;20057;-83
2022/05/09 12:57:06;;;;;;;8.80;2.10;;;24.10;51.80;;;;;;4977375;28;20042;-83
2022/05/09 12:59:47;;;;;;;5.30;1.60;;;23.80;50.50;;;;;;4962479;28;20062;-82
2022/05/09 13:02:22;;;;;;;8.52;1.95;;;23.90;51.60;;;;;;4960542;28;20173;-83
2022/05/09 13:04:50;;;;;;;8.10;1.83;;;23.80;51.40;;;;;;4961648;28;20097;-83
2022/05/09 13:07:16;;;;;;;6.90;1.83;;;24.00;52.10;;;;;;4960833;28;20043;-82
2022/05/09 13:09:55;;;;;;;8.60;1.80;;;24.10;51.90;;;;;;4945704;28;20066;-83
2022/05/09 13:12:29;;;;;;;9.88;2.47;;;24.20;51.00;;;;;;4959861;28;20042;-84
2022/05/09 13:15:13;;;;;;;6.28;1.75;;;23.90;50.00;;;;;;4961797;28;20479;-83
2022/05/09 13:18:01;;;;;;;7.23;2.27;;;23.70;50.40;;;;;;4944477;28;20050;-79
2022/05/09 13:20:29;;;;;;;7.93;2.22;;;23.80;52.30;;;;;;4943646;28;20062;-83
2022/05/09 13:23:05;;;;;;;8.65;2.05;;;24.10;52.50;;;;;;4977984;28;20043;-83
2022/05/09 13:25:32;;;;;;;9.10;2.33;;;24.30;52.80;;;;;;4960064;28;20035;-83
2022/05/09 13:28:03;;;;;;;9.10;2.60;;;24.20;50.60;;;;;;4960863;28;20126;-82
2022/05/09 13:30:37;;;;;;;6.65;2.58;;;24.20;51.30;;;;;;4960339;28;20038;-83
2022/05/09 13:33:03;;;;;;;6.15;2.08;;;24.30;50.60;;;;;;4978541;28;20050;-85
2022/05/09 13:35:36;;;;;;;7.05;2.67;;;24.30;51.60;;;;;;4959277;28;20039;-82
2022/05/09 13:38:22;;;;;;;9.35;2.28;;;24.30;51.10;;;;;;4960712;28;20050;-82
2022/05/09 13:40:52;;;;;;;5.53;2.00;;;24.40;52.40;;;;;;4976762;28;20039;-84
2022/05/09 13:43:26;;;;;;;8.57;2.30;;;24.60;52.00;;;;;;4959321;28;20569;-83
2022/05/09 13:46:09;;;;;;;8.13;2.30;;;24.70;51.00;;;;;;4959828;28;20046;-83
2022/05/09 13:48:36;;;;;;;6.82;2.33;;;24.40;49.10;;;;;;4945482;28;20039;-85
2022/05/09 13:51:02;;;;;;;9.93;2.25;;;24.30;50.80;;;;;;4943761;28;20058;-81
2022/05/09 13:53:31;;;;;;;7.60;2.60;;;24.10;49.60;;;;;;4945606;28;20051;-83
2022/05/09 13:56:00;;;;;;;7.22;2.30;;;24.40;50.50;;;;;;4978253;28;20049;-86
2022/05/09 13:58:29;;;;;;;8.45;2.40;;;24.60;48.10;;;;;;4961747;28;20054;-81
2022/05/09 14:00:56;;;;;;;7.07;2.35;;;24.50;49.10;;;;;;4964210;28;20034;-82
2022/05/09 14:03:39;;;;;;;6.38;2.00;;;24.70;48.80;;;;;;4967020;28;20126;-79
2022/05/09 14:06:27;;;;;;;7.65;2.35;;;24.80;48.30;;;;;;4993258;28;20043;-83
2022/05/09 14:08:55;;;;;;;8.63;2.22;;;24.70;48.20;;;;;;4974821;28;20107;-80
2022/05/09 14:11:37;;;;;;;7.07;2.13;;;24.50;48.20;;;;;;4988225;28;20042;-81
2022/05/09 14:14:04;;;;;;;5.57;1.90;;;24.70;48.00;;;;;;4978017;28;20055;-84
2022/05/09 14:16:48;;;;;;;6.05;2.00;;;24.90;48.60;;;;;;4979041;28;20039;-84
2022/05/09 14:19:24;;;;;;;7.47;2.47;;;24.90;47.00;;;;;;4959542;28;20042;-81
2022/05/09 14:21:57;;;;;;;7.95;1.75;;;25.00;48.60;;;;;;4978463;28;20054;-83
2022/05/09 14:24:31;;;;;;;7.68;2.13;;;25.10;47.60;;;;;;4943604;28;20506;-83
2022/05/09 14:29:58;;;;;;;4.63;1.70;;;24.70;44.60;;;;;;4959236;28;20051;-83
2022/05/09 14:32:51;;;;;;;7.75;2.25;;;24.60;45.30;;;;;;4977271;28;20525;-82
2022/05/09 14:35:46;;;;;;;7.90;2.00;;;24.70;44.70;;;;;;4945653;28;20066;-83
2022/05/09 14:38:38;;;;;;;6.93;1.90;;;24.40;45.60;;;;;;4942984;28;20109;-83
2022/05/09 14:44:25;;;;;;;9.90;1.90;;;24.60;47.30;;;;;;4975999;28;20109;-82
2022/05/09 14:46:59;;;;;;;5.43;1.75;;;24.80;46.70;;;;;;4943298;28;20043;-83
2022/05/09 14:49:26;;;;;;;6.00;1.80;;;24.70;47.20;;;;;;4959945;28;20122;-84
2022/05/09 14:51:59;;;;;;;9.38;2.10;;;24.90;46.90;;;;;;4942927;28;20050;-84
2022/05/09 14:54:28;;;;;;;7.18;2.58;;;24.90;46.60;;;;;;4976992;28;20042;-83
2022/05/09 14:59:48;;;;;;;10.73;2.17;;;24.80;47.50;;;;;;4961198;28;20125;-84
2022/05/09 15:02:29;;;;;;;7.40;2.10;;;24.90;47.00;;;;;;4959156;28;20137;-84
2022/05/09 15:05:00;;;;;;;6.05;2.13;;;25.10;46.60;;;;;;4944816;28;20045;-83
2022/05/09 15:07:26;;;;;;;5.50;1.70;;;25.20;47.30;;;;;;4958374;28;20039;-83
2022/05/09 15:09:52;;;;;;;6.22;2.03;;;25.00;47.20;;;;;;4944212;28;20051;-85
2022/05/09 15:12:29;;;;;;;10.02;2.25;;;24.90;46.70;;;;;;4975398;28;20391;-83
2022/05/09 15:14:56;;;;;;;5.43;1.65;;;24.20;47.20;;;;;;4976553;28;20046;-85
2022/05/09 15:17:22;;;;;;;6.45;2.05;;;24.30;47.70;;;;;;4975401;28;20054;-86
2022/05/09 15:19:47;;;;;;;8.65;2.38;;;24.20;47.90;;;;;;4976578;28;20035;-83
2022/05/09 15:22:16;;;;;;;7.45;2.30;;;24.30;48.00;;;;;;4975254;28;20041;-84
2022/05/09 15:24:42;;;;;;;9.70;2.40;;;24.00;49.10;;;;;;4958604;28;20411;-83
2022/05/09 15:27:12;;;;;;;9.35;2.15;;;24.20;49.20;;;;;;4942101;28;20081;-87
2022/05/09 15:29:38;;;;;;;8.45;2.30;;;24.20;49.00;;;;;;4959047;28;20446;-80
2022/05/09 15:32:05;;;;;;;8.02;2.30;;;24.10;49.00;;;;;;4974943;28;20038;-83
2022/05/09 15:34:31;;;;;;;7.88;2.17;;;24.10;49.20;;;;;;4958199;28;20046;-84
2022/05/09 15:36:56;;;;;;;10.07;2.22;;;24.10;48.90;;;;;;4941592;28;20050;-83
2022/05/09 15:39:22;;;;;;;8.85;2.13;;;24.20;49.00;;;;;;4976739;28;20047;-82
2022/05/09 15:41:50;;;;;;;8.02;2.20;;;24.20;49.20;;;;;;4958644;28;20039;-82
2022/05/09 15:44:21;;;;;;;6.85;2.10;;;24.40;49.50;;;;;;4962488;28;20050;-80
2022/05/09 15:46:47;;;;;;;7.22;1.80;;;24.40;49.10;;;;;;4961189;28;20042;-82
2022/05/09 15:49:18;;;;;;;9.27;2.30;;;24.40;49.40;;;;;;4981798;28;20042;-79
2022/05/09 15:51:43;;;;;;;8.65;2.42;;;24.00;49.10;;;;;;4947165;28;20043;-81
2022/05/09 15:54:09;;;;;;;5.72;2.17;;;24.00;49.60;;;;;;4961892;28;20069;-84
2022/05/09 15:56:38;;;;;;;9.63;2.10;;;23.90;50.40;;;;;;4957784;28;20125;-82
2022/05/09 15:59:06;;;;;;;6.32;2.25;;;23.50;50.30;;;;;;4958418;28;20047;-82
2022/05/09 16:01:34;;;;;;;11.55;2.17;;;23.70;51.00;;;;;;4975467;28;20034;-84
2022/05/09 16:04:04;;;;;;;8.98;2.10;;;23.80;51.70;;;;;;4942319;28;20046;-84
2022/05/09 16:12:05;;;;;;;7.90;1.90;;;23.70;50.40;;;;;;4978181;28;20125;-85
2022/05/09 16:14:31;;;;;;;9.25;2.45;;;23.60;50.60;;;;;;4961720;28;20046;-81
2022/05/09 16:16:59;;;;;;;9.57;2.00;;;23.40;50.90;;;;;;4944665;28;20399;-81
2022/05/09 16:19:41;;;;;;;6.45;2.00;;;23.40;51.00;;;;;;4961669;28;20055;-83
2022/05/09 16:22:10;;;;;;;11.05;2.50;;;23.30;51.00;;;;;;4960691;28;20043;-81
2022/05/09 16:24:41;;;;;;;9.02;2.88;;;23.20;51.10;;;;;;4961352;28;20050;-82
2022/05/09 16:27:12;;;;;;;8.70;2.20;;;23.30;51.40;;;;;;4960579;28;20054;-83
2022/05/09 16:29:38;;;;;;;7.53;1.65;;;23.30;51.20;;;;;;4945120;28;20495;-80
2022/05/09 16:32:04;;;;;;;6.78;2.00;;;23.50;51.60;;;;;;4944677;28;20415;-81
2022/05/09 16:34:34;;;;;;;7.95;2.28;;;23.30;51.50;;;;;;4961305;28;20050;-86
2022/05/09 16:37:05;;;;;;;8.32;2.03;;;23.50;51.70;;;;;;4978692;28;20101;-81
2022/05/09 16:39:34;;;;;;;7.53;2.00;;;23.30;52.00;;;;;;4960624;28;20122;-82
2022/05/09 16:42:03;;;;;;;7.70;2.55;;;23.20;53.00;;;;;;4959931;28;20055;-83
2022/05/09 16:44:31;;;;;;;8.48;2.20;;;23.10;52.90;;;;;;4977966;28;20121;-82
2022/05/09 16:46:57;;;;;;;9.18;2.30;;;23.10;53.60;;;;;;4977616;28;20106;-82